sensor_id;sensor_type;location;lat;lon;timestamp;temperature;humidity
40676;DHT22;26359;48.750;9.314;2023-04-15T00:00:39;7.10;99.90
40676;DHT22;26359;48.750;9.314;2023-04-15T00:03:05;7.10;99.90
40676;DHT22;26359;48.750;9.314;2023-04-15T00:05:31;7.00;99.90
40676;DHT22;26359;48.750;9.314;2023-04-15T00:07:57;7.00;99.90
40676;DHT22;26359;48.750;9.314;2023-04-15T00:10:26;7.00;99.90
40676;DHT22;26359;48.750;9.314;2023-04-15T00:12:52;7.00;99.90
40676;DHT22;26359;48.750;9.314;2023-04-15T00:15:18;7.00;99.90
40676;DHT22;26359;48.750;9.314;2023-04-15T00:17:44;7.00;99.90
40676;DHT22;26359;48.750;9.314;2023-04-15T00:20:10;7.00;99.90
40676;DHT22;26359;48.750;9.314;2023-04-15T00:22:36;7.00;99.90
40676;DHT22;26359;48.750;9.314;2023-04-15T00:25:02;6.90;99.90
40676;DHT22;26359;48.750;9.314;2023-04-15T00:27:27;6.90;99.90
40676;DHT22;26359;48.750;9.314;2023-04-15T00:29:54;6.90;99.90
40676;DHT22;26359;48.750;9.314;2023-04-15T00:32:19;6.80;99.90
40676;DHT22;26359;48.750;9.314;2023-04-15T00:34:45;6.80;99.90
40676;DHT22;26359;48.750;9.314;2023-04-15T00:37:10;6.80;99.90
40676;DHT22;26359;48.750;9.314;2023-04-15T00:39:36;6.80;99.90
40676;DHT22;26359;48.750;9.314;2023-04-15T00:42:03;6.80;99.90
40676;DHT22;26359;48.750;9.314;2023-04-15T00:44:29;6.80;99.90
40676;DHT22;26359;48.750;9.314;2023-04-15T00:46:56;6.70;99.90
40676;DHT22;26359;48.750;9.314;2023-04-15T00:49:21;6.70;99.90
40676;DHT22;26359;48.750;9.314;2023-04-15T00:51:48;6.60;99.90
40676;DHT22;26359;48.750;9.314;2023-04-15T00:54:13;6.60;99.90
40676;DHT22;26359;48.750;9.314;2023-04-15T00:56:39;6.60;99.90
40676;DHT22;26359;48.750;9.314;2023-04-15T00:59:05;6.70;99.90
40676;DHT22;26359;48.750;9.314;2023-04-15T01:01:33;6.70;99.90
40676;DHT22;26359;48.750;9.314;2023-04-15T01:04:00;6.60;99.90
40676;DHT22;26359;48.750;9.314;2023-04-15T01:06:26;6.50;99.90
40676;DHT22;26359;48.750;9.314;2023-04-15T01:08:53;6.50;99.90
40676;DHT22;26359;48.750;9.314;2023-04-15T01:11:19;6.50;99.90
40676;DHT22;26359;48.750;9.314;2023-04-15T01:13:45;6.40;99.90
40676;DHT22;26359;48.750;9.314;2023-04-15T01:16:12;6.20;99.90
40676;DHT22;26359;48.750;9.314;2023-04-15T01:18:38;6.10;99.90
40676;DHT22;26359;48.750;9.314;2023-04-15T01:21:04;5.90;99.90
40676;DHT22;26359;48.750;9.314;2023-04-15T01:23:30;5.80;99.90
40676;DHT22;26359;48.750;9.314;2023-04-15T01:25:57;5.70;99.90
40676;DHT22;26359;48.750;9.314;2023-04-15T01:28:23;5.80;99.90
40676;DHT22;26359;48.750;9.314;2023-04-15T01:30:49;5.80;99.90
40676;DHT22;26359;48.750;9.314;2023-04-15T01:33:15;5.80;99.90
40676;DHT22;26359;48.750;9.314;2023-04-15T01:35:41;5.80;99.90
40676;DHT22;26359;48.750;9.314;2023-04-15T01:38:09;5.80;99.90
40676;DHT22;26359;48.750;9.314;2023-04-15T01:40:35;5.80;99.90
40676;DHT22;26359;48.750;9.314;2023-04-15T01:43:01;5.70;99.90
40676;DHT22;26359;48.750;9.314;2023-04-15T01:45:28;5.70;99.90
40676;DHT22;26359;48.750;9.314;2023-04-15T01:47:54;5.80;99.90
40676;DHT22;26359;48.750;9.314;2023-04-15T01:50:20;5.80;99.90
40676;DHT22;26359;48.750;9.314;2023-04-15T01:52:46;5.80;99.90
40676;DHT22;26359;48.750;9.314;2023-04-15T01:55:13;5.80;99.90
40676;DHT22;26359;48.750;9.314;2023-04-15T01:57:39;5.80;99.90
40676;DHT22;26359;48.750;9.314;2023-04-15T02:00:05;5.80;99.90
40676;DHT22;26359;48.750;9.314;2023-04-15T02:02:32;5.80;99.90
40676;DHT22;26359;48.750;9.314;2023-04-15T02:04:58;5.80;99.90
40676;DHT22;26359;48.750;9.314;2023-04-15T02:07:23;5.70;99.90
40676;DHT22;26359;48.750;9.314;2023-04-15T02:09:49;5.70;99.90
40676;DHT22;26359;48.750;9.314;2023-04-15T02:12:14;5.60;99.90
40676;DHT22;26359;48.750;9.314;2023-04-15T02:14:40;5.60;99.90
40676;DHT22;26359;48.750;9.314;2023-04-15T02:17:05;5.50;99.90
40676;DHT22;26359;48.750;9.314;2023-04-15T02:19:35;5.60;99.90
40676;DHT22;26359;48.750;9.314;2023-04-15T02:22:00;5.50;99.90
40676;DHT22;26359;48.750;9.314;2023-04-15T02:24:27;5.50;99.90
40676;DHT22;26359;48.750;9.314;2023-04-15T02:26:52;5.50;99.90
40676;DHT22;26359;48.750;9.314;2023-04-15T02:29:18;5.50;99.90
40676;DHT22;26359;48.750;9.314;2023-04-15T02:31:44;5.50;99.90
40676;DHT22;26359;48.750;9.314;2023-04-15T02:34:10;5.50;99.90
40676;DHT22;26359;48.750;9.314;2023-04-15T02:36:35;5.50;99.90
40676;DHT22;26359;48.750;9.314;2023-04-15T02:39:01;5.50;99.90
40676;DHT22;26359;48.750;9.314;2023-04-15T02:41:28;5.40;99.90
40676;DHT22;26359;48.750;9.314;2023-04-15T02:43:54;5.40;99.90
40676;DHT22;26359;48.750;9.314;2023-04-15T02:46:20;5.40;99.90
40676;DHT22;26359;48.750;9.314;2023-04-15T02:48:47;5.40;99.90
40676;DHT22;26359;48.750;9.314;2023-04-15T02:51:18;5.40;99.90
40676;DHT22;26359;48.750;9.314;2023-04-15T02:53:47;5.30;99.90
40676;DHT22;26359;48.750;9.314;2023-04-15T02:56:13;5.30;99.90
40676;DHT22;26359;48.750;9.314;2023-04-15T02:58:42;5.30;99.90
40676;DHT22;26359;48.750;9.314;2023-04-15T03:01:08;5.20;99.90
40676;DHT22;26359;48.750;9.314;2023-04-15T03:03:33;5.30;99.90
40676;DHT22;26359;48.750;9.314;2023-04-15T03:05:59;5.30;99.90
40676;DHT22;26359;48.750;9.314;2023-04-15T03:08:25;5.20;99.90
40676;DHT22;26359;48.750;9.314;2023-04-15T03:10:51;5.20;99.90
40676;DHT22;26359;48.750;9.314;2023-04-15T03:13:17;5.20;99.90
40676;DHT22;26359;48.750;9.314;2023-04-15T03:15:45;5.10;99.90
40676;DHT22;26359;48.750;9.314;2023-04-15T03:18:10;5.20;99.90
40676;DHT22;26359;48.750;9.314;2023-04-15T03:20:36;5.20;99.90
40676;DHT22;26359;48.750;9.314;2023-04-15T03:23:02;5.20;99.90
40676;DHT22;26359;48.750;9.314;2023-04-15T03:25:27;5.20;99.90
40676;DHT22;26359;48.750;9.314;2023-04-15T03:27:53;5.20;99.90
40676;DHT22;26359;48.750;9.314;2023-04-15T03:30:18;5.10;99.90
40676;DHT22;26359;48.750;9.314;2023-04-15T03:32:44;5.10;99.90
40676;DHT22;26359;48.750;9.314;2023-04-15T03:35:09;5.10;99.90
40676;DHT22;26359;48.750;9.314;2023-04-15T03:37:35;5.10;99.90
40676;DHT22;26359;48.750;9.314;2023-04-15T03:40:01;5.20;99.90
40676;DHT22;26359;48.750;9.314;2023-04-15T03:42:27;5.10;99.90
40676;DHT22;26359;48.750;9.314;2023-04-15T03:44:52;5.10;99.90
40676;DHT22;26359;48.750;9.314;2023-04-15T03:47:18;5.10;99.90
40676;DHT22;26359;48.750;9.314;2023-04-15T03:49:43;5.10;99.90
40676;DHT22;26359;48.750;9.314;2023-04-15T03:52:09;5.10;99.90
40676;DHT22;26359;48.750;9.314;2023-04-15T03:54:34;5.10;99.90
40676;DHT22;26359;48.750;9.314;2023-04-15T03:57:00;4.90;99.90
40676;DHT22;26359;48.750;9.314;2023-04-15T03:59:26;4.70;99.90
40676;DHT22;26359;48.750;9.314;2023-04-15T04:01:51;4.60;99.90
40676;DHT22;26359;48.750;9.314;2023-04-15T04:04:17;4.60;99.90
40676;DHT22;26359;48.750;9.314;2023-04-15T04:06:42;4.60;99.90
40676;DHT22;26359;48.750;9.314;2023-04-15T04:09:08;4.60;99.90
40676;DHT22;26359;48.750;9.314;2023-04-15T04:11:33;4.60;99.90
40676;DHT22;26359;48.750;9.314;2023-04-15T04:13:59;4.70;99.90
40676;DHT22;26359;48.750;9.314;2023-04-15T04:16:25;4.70;99.90
40676;DHT22;26359;48.750;9.314;2023-04-15T04:18:50;4.70;99.90
40676;DHT22;26359;48.750;9.314;2023-04-15T04:21:16;4.70;99.90
40676;DHT22;26359;48.750;9.314;2023-04-15T04:23:42;4.70;99.90
40676;DHT22;26359;48.750;9.314;2023-04-15T04:26:07;4.70;99.90
40676;DHT22;26359;48.750;9.314;2023-04-15T04:28:33;4.70;99.90
40676;DHT22;26359;48.750;9.314;2023-04-15T04:30:59;4.70;99.90
40676;DHT22;26359;48.750;9.314;2023-04-15T04:33:25;4.70;99.90
40676;DHT22;26359;48.750;9.314;2023-04-15T04:35:51;4.70;99.90
40676;DHT22;26359;48.750;9.314;2023-04-15T04:38:16;4.70;99.90
40676;DHT22;26359;48.750;9.314;2023-04-15T04:40:42;4.70;99.90
40676;DHT22;26359;48.750;9.314;2023-04-15T04:43:08;4.70;99.90
40676;DHT22;26359;48.750;9.314;2023-04-15T04:45:34;4.60;99.90
40676;DHT22;26359;48.750;9.314;2023-04-15T04:48:00;4.50;99.90
40676;DHT22;26359;48.750;9.314;2023-04-15T04:50:26;4.50;99.90
40676;DHT22;26359;48.750;9.314;2023-04-15T04:52:51;4.50;99.90
40676;DHT22;26359;48.750;9.314;2023-04-15T04:55:17;4.40;99.90
40676;DHT22;26359;48.750;9.314;2023-04-15T04:57:42;4.40;99.90
40676;DHT22;26359;48.750;9.314;2023-04-15T05:00:09;4.30;99.90
40676;DHT22;26359;48.750;9.314;2023-04-15T05:02:34;4.30;99.90
40676;DHT22;26359;48.750;9.314;2023-04-15T05:05:00;4.30;99.90
40676;DHT22;26359;48.750;9.314;2023-04-15T05:07:26;4.40;99.90
40676;DHT22;26359;48.750;9.314;2023-04-15T05:09:52;4.40;99.90
40676;DHT22;26359;48.750;9.314;2023-04-15T05:12:17;4.40;99.90
40676;DHT22;26359;48.750;9.314;2023-04-15T05:14:43;4.40;99.90
40676;DHT22;26359;48.750;9.314;2023-04-15T05:17:09;4.30;99.90
40676;DHT22;26359;48.750;9.314;2023-04-15T05:19:35;4.40;99.90
40676;DHT22;26359;48.750;9.314;2023-04-15T05:22:01;4.40;99.90
40676;DHT22;26359;48.750;9.314;2023-04-15T05:24:26;4.40;99.90
40676;DHT22;26359;48.750;9.314;2023-04-15T05:26:52;4.40;99.90
40676;DHT22;26359;48.750;9.314;2023-04-15T05:29:17;4.40;99.90
40676;DHT22;26359;48.750;9.314;2023-04-15T05:31:43;4.30;99.90
40676;DHT22;26359;48.750;9.314;2023-04-15T05:34:09;4.20;99.90
40676;DHT22;26359;48.750;9.314;2023-04-15T05:36:36;4.20;99.90
40676;DHT22;26359;48.750;9.314;2023-04-15T05:39:01;4.10;99.90
40676;DHT22;26359;48.750;9.314;2023-04-15T05:41:27;4.10;99.90
40676;DHT22;26359;48.750;9.314;2023-04-15T05:43:52;4.00;99.90
40676;DHT22;26359;48.750;9.314;2023-04-15T05:46:18;4.10;99.90
40676;DHT22;26359;48.750;9.314;2023-04-15T05:48:43;4.20;99.90
40676;DHT22;26359;48.750;9.314;2023-04-15T05:51:09;4.20;99.90
40676;DHT22;26359;48.750;9.314;2023-04-15T05:53:35;4.30;99.90
40676;DHT22;26359;48.750;9.314;2023-04-15T05:56:01;4.30;99.90
40676;DHT22;26359;48.750;9.314;2023-04-15T05:58:26;4.40;99.90
40676;DHT22;26359;48.750;9.314;2023-04-15T06:00:52;4.40;99.90
40676;DHT22;26359;48.750;9.314;2023-04-15T06:03:17;4.40;99.90
40676;DHT22;26359;48.750;9.314;2023-04-15T06:05:43;4.30;99.90
40676;DHT22;26359;48.750;9.314;2023-04-15T06:08:09;4.40;99.90
40676;DHT22;26359;48.750;9.314;2023-04-15T06:10:36;4.50;99.90
40676;DHT22;26359;48.750;9.314;2023-04-15T06:13:02;4.50;99.90
40676;DHT22;26359;48.750;9.314;2023-04-15T06:15:28;4.60;99.90
40676;DHT22;26359;48.750;9.314;2023-04-15T06:17:54;4.60;99.90
40676;DHT22;26359;48.750;9.314;2023-04-15T06:20:19;4.70;99.90
40676;DHT22;26359;48.750;9.314;2023-04-15T06:22:45;4.70;99.90
40676;DHT22;26359;48.750;9.314;2023-04-15T06:25:10;4.80;99.90
40676;DHT22;26359;48.750;9.314;2023-04-15T06:27:36;4.90;99.90
40676;DHT22;26359;48.750;9.314;2023-04-15T06:30:02;5.00;99.90
40676;DHT22;26359;48.750;9.314;2023-04-15T06:32:28;5.10;99.90
40676;DHT22;26359;48.750;9.314;2023-04-15T06:34:53;5.20;99.90
40676;DHT22;26359;48.750;9.314;2023-04-15T06:37:19;5.30;99.90
40676;DHT22;26359;48.750;9.314;2023-04-15T06:39:45;5.40;99.90
40676;DHT22;26359;48.750;9.314;2023-04-15T06:42:10;5.50;99.90
40676;DHT22;26359;48.750;9.314;2023-04-15T06:44:36;5.50;99.90
40676;DHT22;26359;48.750;9.314;2023-04-15T06:47:02;5.50;99.90
40676;DHT22;26359;48.750;9.314;2023-04-15T06:49:28;5.50;99.90
40676;DHT22;26359;48.750;9.314;2023-04-15T06:51:53;5.50;99.90
40676;DHT22;26359;48.750;9.314;2023-04-15T06:54:19;5.50;99.90
40676;DHT22;26359;48.750;9.314;2023-04-15T06:56:44;5.40;99.90
40676;DHT22;26359;48.750;9.314;2023-04-15T06:59:10;5.50;99.90
40676;DHT22;26359;48.750;9.314;2023-04-15T07:01:36;5.60;99.90
40676;DHT22;26359;48.750;9.314;2023-04-15T07:04:01;5.60;99.90
40676;DHT22;26359;48.750;9.314;2023-04-15T07:06:27;5.60;99.90
40676;DHT22;26359;48.750;9.314;2023-04-15T07:08:52;5.60;99.90
40676;DHT22;26359;48.750;9.314;2023-04-15T07:11:19;5.60;99.90
40676;DHT22;26359;48.750;9.314;2023-04-15T07:13:45;5.60;99.90
40676;DHT22;26359;48.750;9.314;2023-04-15T07:16:11;5.50;99.90
40676;DHT22;26359;48.750;9.314;2023-04-15T07:18:36;5.60;99.90
40676;DHT22;26359;48.750;9.314;2023-04-15T07:21:02;5.60;99.90
40676;DHT22;26359;48.750;9.314;2023-04-15T07:23:27;5.60;99.90
40676;DHT22;26359;48.750;9.314;2023-04-15T07:25:53;5.60;99.90
40676;DHT22;26359;48.750;9.314;2023-04-15T07:28:19;5.60;99.90
40676;DHT22;26359;48.750;9.314;2023-04-15T07:30:45;5.70;99.90
40676;DHT22;26359;48.750;9.314;2023-04-15T07:33:10;5.80;99.90
40676;DHT22;26359;48.750;9.314;2023-04-15T07:35:36;5.90;99.90
40676;DHT22;26359;48.750;9.314;2023-04-15T07:38:02;6.10;99.90
40676;DHT22;26359;48.750;9.314;2023-04-15T07:40:27;6.30;99.90
40676;DHT22;26359;48.750;9.314;2023-04-15T07:42:54;6.40;99.90
40676;DHT22;26359;48.750;9.314;2023-04-15T07:45:20;6.50;99.90
40676;DHT22;26359;48.750;9.314;2023-04-15T07:47:46;6.60;99.90
40676;DHT22;26359;48.750;9.314;2023-04-15T07:50:11;6.80;99.90
40676;DHT22;26359;48.750;9.314;2023-04-15T07:52:37;6.90;99.90
40676;DHT22;26359;48.750;9.314;2023-04-15T07:55:06;7.00;99.90
40676;DHT22;26359;48.750;9.314;2023-04-15T07:57:35;7.20;99.90
40676;DHT22;26359;48.750;9.314;2023-04-15T08:00:02;7.20;99.90
40676;DHT22;26359;48.750;9.314;2023-04-15T08:02:30;7.40;99.90
40676;DHT22;26359;48.750;9.314;2023-04-15T08:04:56;7.40;99.90
40676;DHT22;26359;48.750;9.314;2023-04-15T08:07:22;7.50;99.90
40676;DHT22;26359;48.750;9.314;2023-04-15T08:09:47;7.70;99.90
40676;DHT22;26359;48.750;9.314;2023-04-15T08:12:13;7.80;99.90
40676;DHT22;26359;48.750;9.314;2023-04-15T08:14:39;7.90;99.90
40676;DHT22;26359;48.750;9.314;2023-04-15T08:17:05;8.00;99.90
40676;DHT22;26359;48.750;9.314;2023-04-15T08:19:30;8.10;99.90
40676;DHT22;26359;48.750;9.314;2023-04-15T08:21:56;8.30;99.90
40676;DHT22;26359;48.750;9.314;2023-04-15T08:24:23;8.50;99.90
40676;DHT22;26359;48.750;9.314;2023-04-15T08:26:48;8.50;99.90
40676;DHT22;26359;48.750;9.314;2023-04-15T08:29:14;8.60;99.90
40676;DHT22;26359;48.750;9.314;2023-04-15T08:31:40;8.60;99.90
40676;DHT22;26359;48.750;9.314;2023-04-15T08:34:06;8.70;99.90
40676;DHT22;26359;48.750;9.314;2023-04-15T08:36:31;8.90;99.90
40676;DHT22;26359;48.750;9.314;2023-04-15T08:38:57;9.10;99.90
40676;DHT22;26359;48.750;9.314;2023-04-15T08:41:25;9.10;99.90
40676;DHT22;26359;48.750;9.314;2023-04-15T08:43:53;9.10;99.90
40676;DHT22;26359;48.750;9.314;2023-04-15T08:46:21;9.20;99.90
40676;DHT22;26359;48.750;9.314;2023-04-15T08:48:47;9.40;99.90
40676;DHT22;26359;48.750;9.314;2023-04-15T08:51:13;9.40;99.90
40676;DHT22;26359;48.750;9.314;2023-04-15T08:53:47;9.60;99.90
40676;DHT22;26359;48.750;9.314;2023-04-15T08:56:14;9.80;99.90
40676;DHT22;26359;48.750;9.314;2023-04-15T08:58:44;10.00;99.90
40676;DHT22;26359;48.750;9.314;2023-04-15T09:01:11;10.10;99.90
40676;DHT22;26359;48.750;9.314;2023-04-15T09:03:38;10.20;99.90
40676;DHT22;26359;48.750;9.314;2023-04-15T09:06:05;10.30;99.90
40676;DHT22;26359;48.750;9.314;2023-04-15T09:08:31;10.40;99.90
40676;DHT22;26359;48.750;9.314;2023-04-15T09:10:58;10.60;99.90
40676;DHT22;26359;48.750;9.314;2023-04-15T09:13:24;10.70;99.90
40676;DHT22;26359;48.750;9.314;2023-04-15T09:15:50;10.80;99.90
40676;DHT22;26359;48.750;9.314;2023-04-15T09:18:35;10.90;99.90
40676;DHT22;26359;48.750;9.314;2023-04-15T09:23:31;11.20;99.90
40676;DHT22;26359;48.750;9.314;2023-04-15T09:25:58;11.40;99.90
40676;DHT22;26359;48.750;9.314;2023-04-15T09:28:25;11.50;99.90
40676;DHT22;26359;48.750;9.314;2023-04-15T09:30:59;11.90;99.90
40676;DHT22;26359;48.750;9.314;2023-04-15T09:33:26;12.20;99.90
40676;DHT22;26359;48.750;9.314;2023-04-15T09:36:03;12.40;99.90
40676;DHT22;26359;48.750;9.314;2023-04-15T09:38:29;12.70;99.90
40676;DHT22;26359;48.750;9.314;2023-04-15T09:40:56;12.90;99.90
40676;DHT22;26359;48.750;9.314;2023-04-15T09:43:22;13.00;99.90
40676;DHT22;26359;48.750;9.314;2023-04-15T09:45:51;13.10;99.90
40676;DHT22;26359;48.750;9.314;2023-04-15T09:48:21;13.30;99.90
40676;DHT22;26359;48.750;9.314;2023-04-15T09:50:48;13.40;99.90
40676;DHT22;26359;48.750;9.314;2023-04-15T09:53:18;13.60;99.90
40676;DHT22;26359;48.750;9.314;2023-04-15T09:55:58;13.80;99.90
40676;DHT22;26359;48.750;9.314;2023-04-15T09:58:28;13.60;99.90
40676;DHT22;26359;48.750;9.314;2023-04-15T10:00:55;13.50;99.90
40676;DHT22;26359;48.750;9.314;2023-04-15T10:03:26;13.40;99.90
40676;DHT22;26359;48.750;9.314;2023-04-15T10:05:54;13.70;99.90
40676;DHT22;26359;48.750;9.314;2023-04-15T10:08:22;13.80;99.90
40676;DHT22;26359;48.750;9.314;2023-04-15T10:10:48;14.00;99.90
40676;DHT22;26359;48.750;9.314;2023-04-15T10:13:16;14.00;99.90
40676;DHT22;26359;48.750;9.314;2023-04-15T10:15:44;13.90;99.90
40676;DHT22;26359;48.750;9.314;2023-04-15T10:18:15;13.90;99.90
40676;DHT22;26359;48.750;9.314;2023-04-15T10:20:44;13.90;99.90
40676;DHT22;26359;48.750;9.314;2023-04-15T10:23:11;13.90;99.90
40676;DHT22;26359;48.750;9.314;2023-04-15T10:25:37;14.10;99.90
40676;DHT22;26359;48.750;9.314;2023-04-15T10:28:07;14.40;99.90
40676;DHT22;26359;48.750;9.314;2023-04-15T10:30:34;14.70;99.90
40676;DHT22;26359;48.750;9.314;2023-04-15T10:33:02;15.10;99.90
40676;DHT22;26359;48.750;9.314;2023-04-15T10:35:30;15.20;99.90
40676;DHT22;26359;48.750;9.314;2023-04-15T10:37:56;15.00;99.90
40676;DHT22;26359;48.750;9.314;2023-04-15T10:40:29;15.00;99.90
40676;DHT22;26359;48.750;9.314;2023-04-15T10:43:00;15.00;99.90
40676;DHT22;26359;48.750;9.314;2023-04-15T10:45:27;15.20;99.90
40676;DHT22;26359;48.750;9.314;2023-04-15T10:47:57;15.40;99.90
40676;DHT22;26359;48.750;9.314;2023-04-15T10:50:26;15.40;99.90
40676;DHT22;26359;48.750;9.314;2023-04-15T10:52:53;15.60;99.90
40676;DHT22;26359;48.750;9.314;2023-04-15T10:55:20;15.80;99.90
40676;DHT22;26359;48.750;9.314;2023-04-15T10:57:53;15.80;99.90
40676;DHT22;26359;48.750;9.314;2023-04-15T11:00:24;15.80;99.90
40676;DHT22;26359;48.750;9.314;2023-04-15T11:03:07;15.70;99.90
40676;DHT22;26359;48.750;9.314;2023-04-15T11:05:48;15.50;99.90
40676;DHT22;26359;48.750;9.314;2023-04-15T11:08:14;15.60;99.90
40676;DHT22;26359;48.750;9.314;2023-04-15T11:13:16;15.60;99.90
40676;DHT22;26359;48.750;9.314;2023-04-15T11:15:46;15.50;99.90
40676;DHT22;26359;48.750;9.314;2023-04-15T11:20:52;15.30;99.90
40676;DHT22;26359;48.750;9.314;2023-04-15T11:23:41;15.00;99.90
40676;DHT22;26359;48.750;9.314;2023-04-15T11:26:13;14.90;99.90
40676;DHT22;26359;48.750;9.314;2023-04-15T11:28:41;14.90;99.90
40676;DHT22;26359;48.750;9.314;2023-04-15T11:31:15;14.90;99.90
40676;DHT22;26359;48.750;9.314;2023-04-15T11:33:55;14.90;99.90
40676;DHT22;26359;48.750;9.314;2023-04-15T11:36:26;15.00;99.90
40676;DHT22;26359;48.750;9.314;2023-04-15T11:38:52;15.10;99.90
40676;DHT22;26359;48.750;9.314;2023-04-15T11:41:22;15.40;99.90
40676;DHT22;26359;48.750;9.314;2023-04-15T11:43:48;15.40;99.90
40676;DHT22;26359;48.750;9.314;2023-04-15T11:46:14;15.40;99.90
40676;DHT22;26359;48.750;9.314;2023-04-15T11:48:43;15.30;99.90
40676;DHT22;26359;48.750;9.314;2023-04-15T11:51:09;15.20;99.90
40676;DHT22;26359;48.750;9.314;2023-04-15T11:53:43;15.10;99.90
40676;DHT22;26359;48.750;9.314;2023-04-15T11:56:29;15.00;99.90
40676;DHT22;26359;48.750;9.314;2023-04-15T11:58:58;14.80;99.90
40676;DHT22;26359;48.750;9.314;2023-04-15T12:01:37;14.60;99.90
40676;DHT22;26359;48.750;9.314;2023-04-15T12:04:13;14.40;99.90
40676;DHT22;26359;48.750;9.314;2023-04-15T12:06:39;14.00;99.90
40676;DHT22;26359;48.750;9.314;2023-04-15T12:16:48;13.40;99.90
40676;DHT22;26359;48.750;9.314;2023-04-15T12:19:17;13.50;99.90
40676;DHT22;26359;48.750;9.314;2023-04-15T12:21:44;13.60;99.90
40676;DHT22;26359;48.750;9.314;2023-04-15T12:24:11;13.80;99.90
40676;DHT22;26359;48.750;9.314;2023-04-15T12:26:46;13.80;99.90
40676;DHT22;26359;48.750;9.314;2023-04-15T12:29:13;13.90;99.90
40676;DHT22;26359;48.750;9.314;2023-04-15T12:31:51;14.00;99.90
40676;DHT22;26359;48.750;9.314;2023-04-15T12:34:25;13.80;99.90
40676;DHT22;26359;48.750;9.314;2023-04-15T12:36:51;13.60;99.90
40676;DHT22;26359;48.750;9.314;2023-04-15T12:39:16;13.50;99.90
40676;DHT22;26359;48.750;9.314;2023-04-15T12:41:42;13.30;99.90
40676;DHT22;26359;48.750;9.314;2023-04-15T12:44:07;13.00;99.90
40676;DHT22;26359;48.750;9.314;2023-04-15T12:46:33;12.60;99.90
40676;DHT22;26359;48.750;9.314;2023-04-15T12:48:59;12.10;99.90
40676;DHT22;26359;48.750;9.314;2023-04-15T12:51:24;11.50;99.90
40676;DHT22;26359;48.750;9.314;2023-04-15T12:53:51;11.20;99.90
40676;DHT22;26359;48.750;9.314;2023-04-15T12:56:17;10.90;99.90
40676;DHT22;26359;48.750;9.314;2023-04-15T12:58:43;10.70;99.90
40676;DHT22;26359;48.750;9.314;2023-04-15T13:01:09;10.70;99.90
40676;DHT22;26359;48.750;9.314;2023-04-15T13:03:35;10.60;99.90
40676;DHT22;26359;48.750;9.314;2023-04-15T13:06:00;10.50;99.90
40676;DHT22;26359;48.750;9.314;2023-04-15T13:08:26;10.50;99.90
40676;DHT22;26359;48.750;9.314;2023-04-15T13:10:52;10.50;99.90
40676;DHT22;26359;48.750;9.314;2023-04-15T13:13:18;10.50;99.90
40676;DHT22;26359;48.750;9.314;2023-04-15T13:15:43;10.60;99.90
40676;DHT22;26359;48.750;9.314;2023-04-15T13:18:10;10.70;99.90
40676;DHT22;26359;48.750;9.314;2023-04-15T13:20:36;10.80;99.90
40676;DHT22;26359;48.750;9.314;2023-04-15T13:23:01;10.90;99.90
40676;DHT22;26359;48.750;9.314;2023-04-15T13:25:27;10.90;99.90
40676;DHT22;26359;48.750;9.314;2023-04-15T13:27:52;11.00;99.90
40676;DHT22;26359;48.750;9.314;2023-04-15T13:30:18;11.00;99.90
40676;DHT22;26359;48.750;9.314;2023-04-15T13:32:44;11.10;99.90
40676;DHT22;26359;48.750;9.314;2023-04-15T13:35:09;11.20;99.90
40676;DHT22;26359;48.750;9.314;2023-04-15T13:37:35;11.30;99.90
40676;DHT22;26359;48.750;9.314;2023-04-15T13:40:00;11.40;99.90
40676;DHT22;26359;48.750;9.314;2023-04-15T13:42:26;11.50;99.90
40676;DHT22;26359;48.750;9.314;2023-04-15T13:44:52;11.70;99.90
40676;DHT22;26359;48.750;9.314;2023-04-15T13:47:20;11.90;99.90
40676;DHT22;26359;48.750;9.314;2023-04-15T13:49:46;11.90;99.90
40676;DHT22;26359;48.750;9.314;2023-04-15T13:52:12;11.90;99.90
40676;DHT22;26359;48.750;9.314;2023-04-15T13:54:37;11.90;99.90
40676;DHT22;26359;48.750;9.314;2023-04-15T13:57:04;12.00;99.90
40676;DHT22;26359;48.750;9.314;2023-04-15T13:59:30;12.10;99.90
40676;DHT22;26359;48.750;9.314;2023-04-15T14:01:55;12.10;99.90
40676;DHT22;26359;48.750;9.314;2023-04-15T14:04:21;12.00;99.90
40676;DHT22;26359;48.750;9.314;2023-04-15T14:06:46;11.90;99.90
40676;DHT22;26359;48.750;9.314;2023-04-15T14:09:12;11.80;99.90
40676;DHT22;26359;48.750;9.314;2023-04-15T14:11:38;11.60;99.90
40676;DHT22;26359;48.750;9.314;2023-04-15T14:14:04;11.50;99.90
40676;DHT22;26359;48.750;9.314;2023-04-15T14:16:33;11.60;99.90
40676;DHT22;26359;48.750;9.314;2023-04-15T14:19:01;11.60;99.90
40676;DHT22;26359;48.750;9.314;2023-04-15T14:21:34;11.70;99.90
40676;DHT22;26359;48.750;9.314;2023-04-15T14:24:00;11.70;99.90
40676;DHT22;26359;48.750;9.314;2023-04-15T14:26:25;11.80;99.90
40676;DHT22;26359;48.750;9.314;2023-04-15T14:28:51;11.90;99.90
40676;DHT22;26359;48.750;9.314;2023-04-15T14:31:18;11.90;99.90
40676;DHT22;26359;48.750;9.314;2023-04-15T14:33:43;12.00;99.90
40676;DHT22;26359;48.750;9.314;2023-04-15T14:36:09;12.00;99.90
40676;DHT22;26359;48.750;9.314;2023-04-15T14:38:35;12.00;99.90
40676;DHT22;26359;48.750;9.314;2023-04-15T14:41:07;11.90;99.90
40676;DHT22;26359;48.750;9.314;2023-04-15T14:43:34;12.00;99.90
40676;DHT22;26359;48.750;9.314;2023-04-15T14:46:00;12.00;99.90
40676;DHT22;26359;48.750;9.314;2023-04-15T14:48:26;12.00;99.90
40676;DHT22;26359;48.750;9.314;2023-04-15T14:50:52;12.00;99.90
40676;DHT22;26359;48.750;9.314;2023-04-15T14:53:17;12.00;99.90
40676;DHT22;26359;48.750;9.314;2023-04-15T14:55:43;12.30;99.90
40676;DHT22;26359;48.750;9.314;2023-04-15T14:58:10;12.20;99.90
40676;DHT22;26359;48.750;9.314;2023-04-15T15:00:37;11.90;99.90
40676;DHT22;26359;48.750;9.314;2023-04-15T15:03:09;11.70;99.90
40676;DHT22;26359;48.750;9.314;2023-04-15T15:05:44;11.50;99.90
40676;DHT22;26359;48.750;9.314;2023-04-15T15:08:11;11.40;99.90
40676;DHT22;26359;48.750;9.314;2023-04-15T15:10:38;11.20;99.90
40676;DHT22;26359;48.750;9.314;2023-04-15T15:13:05;11.10;99.90
40676;DHT22;26359;48.750;9.314;2023-04-15T15:15:32;10.90;99.90
40676;DHT22;26359;48.750;9.314;2023-04-15T15:17:58;10.90;99.90
40676;DHT22;26359;48.750;9.314;2023-04-15T15:20:24;10.80;99.90
40676;DHT22;26359;48.750;9.314;2023-04-15T15:22:50;10.80;99.90
40676;DHT22;26359;48.750;9.314;2023-04-15T15:25:15;10.80;99.90
40676;DHT22;26359;48.750;9.314;2023-04-15T15:27:41;10.80;99.90
40676;DHT22;26359;48.750;9.314;2023-04-15T15:30:07;10.70;99.90
40676;DHT22;26359;48.750;9.314;2023-04-15T15:32:33;10.80;99.90
40676;DHT22;26359;48.750;9.314;2023-04-15T15:34:59;10.70;99.90
40676;DHT22;26359;48.750;9.314;2023-04-15T15:37:24;10.80;99.90
40676;DHT22;26359;48.750;9.314;2023-04-15T15:39:51;10.70;99.90
40676;DHT22;26359;48.750;9.314;2023-04-15T15:42:20;10.70;99.90
40676;DHT22;26359;48.750;9.314;2023-04-15T15:44:46;10.60;99.90
40676;DHT22;26359;48.750;9.314;2023-04-15T15:47:14;10.60;99.90
40676;DHT22;26359;48.750;9.314;2023-04-15T15:49:39;10.60;99.90
40676;DHT22;26359;48.750;9.314;2023-04-15T15:52:05;10.50;99.90